sensor_id;sensor_type;location;lat;lon;timestamp;temperature;humidity
11047;DHT22;5576;50.008;10.596;2022-07-03T00:01:34;17.10;99.90
11047;DHT22;5576;50.008;10.596;2022-07-03T00:04:00;17.10;99.90
11047;DHT22;5576;50.008;10.596;2022-07-03T00:06:27;17.00;99.90
11047;DHT22;5576;50.008;10.596;2022-07-03T00:08:53;16.90;99.90
11047;DHT22;5576;50.008;10.596;2022-07-03T00:11:20;13.50;99.90
11047;DHT22;5576;50.008;10.596;2022-07-03T00:13:46;16.70;99.90
11047;DHT22;5576;50.008;10.596;2022-07-03T00:16:12;20.50;99.90
11047;DHT22;5576;50.008;10.596;2022-07-03T00:18:38;16.80;99.90
11047;DHT22;5576;50.008;10.596;2022-07-03T00:21:08;16.80;99.90
11047;DHT22;5576;50.008;10.596;2022-07-03T00:26:25;16.70;99.90
11047;DHT22;5576;50.008;10.596;2022-07-03T00:28:52;16.70;99.90
11047;DHT22;5576;50.008;10.596;2022-07-03T00:31:22;16.80;99.90
11047;DHT22;5576;50.008;10.596;2022-07-03T00:33:48;16.70;99.90
11047;DHT22;5576;50.008;10.596;2022-07-03T00:36:16;16.80;99.90
11047;DHT22;5576;50.008;10.596;2022-07-03T00:38:42;16.70;99.90
11047;DHT22;5576;50.008;10.596;2022-07-03T00:41:25;16.80;99.90
11047;DHT22;5576;50.008;10.596;2022-07-03T00:43:51;16.80;99.90
11047;DHT22;5576;50.008;10.596;2022-07-03T00:46:17;16.90;99.90
11047;DHT22;5576;50.008;10.596;2022-07-03T00:48:46;16.90;99.90
11047;DHT22;5576;50.008;10.596;2022-07-03T00:51:14;16.40;99.90
11047;DHT22;5576;50.008;10.596;2022-07-03T00:53:41;16.90;99.90
11047;DHT22;5576;50.008;10.596;2022-07-03T00:56:08;17.00;99.90
11047;DHT22;5576;50.008;10.596;2022-07-03T00:58:37;17.10;99.90
11047;DHT22;5576;50.008;10.596;2022-07-03T01:01:03;16.20;99.90
11047;DHT22;5576;50.008;10.596;2022-07-03T01:03:32;17.10;99.90
11047;DHT22;5576;50.008;10.596;2022-07-03T01:06:04;17.10;99.90
11047;DHT22;5576;50.008;10.596;2022-07-03T01:08:56;17.20;99.90
11047;DHT22;5576;50.008;10.596;2022-07-03T01:11:38;17.10;99.90
11047;DHT22;5576;50.008;10.596;2022-07-03T01:14:12;17.00;99.90
11047;DHT22;5576;50.008;10.596;2022-07-03T01:16:51;17.00;99.90
11047;DHT22;5576;50.008;10.596;2022-07-03T01:19:42;17.10;99.90
11047;DHT22;5576;50.008;10.596;2022-07-03T01:22:30;17.10;99.90
11047;DHT22;5576;50.008;10.596;2022-07-03T01:25:24;17.00;99.90
11047;DHT22;5576;50.008;10.596;2022-07-03T01:28:03;18.20;99.90
11047;DHT22;5576;50.008;10.596;2022-07-03T01:30:35;17.20;99.90
11047;DHT22;5576;50.008;10.596;2022-07-03T01:33:06;17.20;99.90
11047;DHT22;5576;50.008;10.596;2022-07-03T01:35:36;17.20;99.90
11047;DHT22;5576;50.008;10.596;2022-07-03T01:38:11;17.20;99.90
11047;DHT22;5576;50.008;10.596;2022-07-03T01:40:40;17.20;99.90
11047;DHT22;5576;50.008;10.596;2022-07-03T01:43:09;17.10;99.90
11047;DHT22;5576;50.008;10.596;2022-07-03T01:45:43;17.10;99.90
11047;DHT22;5576;50.008;10.596;2022-07-03T01:48:10;16.70;99.90
11047;DHT22;5576;50.008;10.596;2022-07-03T01:50:37;17.00;99.90
11047;DHT22;5576;50.008;10.596;2022-07-03T01:53:06;16.90;99.90
11047;DHT22;5576;50.008;10.596;2022-07-03T01:55:33;16.90;99.90
11047;DHT22;5576;50.008;10.596;2022-07-03T01:58:00;16.90;99.90
11047;DHT22;5576;50.008;10.596;2022-07-03T02:00:27;17.20;99.90
11047;DHT22;5576;50.008;10.596;2022-07-03T02:03:03;16.80;99.90
11047;DHT22;5576;50.008;10.596;2022-07-03T02:05:38;16.70;99.90
11047;DHT22;5576;50.008;10.596;2022-07-03T02:11:09;20.00;99.90
11047;DHT22;5576;50.008;10.596;2022-07-03T02:18:41;17.00;99.90
11047;DHT22;5576;50.008;10.596;2022-07-03T02:21:17;17.10;99.90
11047;DHT22;5576;50.008;10.596;2022-07-03T02:26:40;17.10;99.90
11047;DHT22;5576;50.008;10.596;2022-07-03T02:29:11;17.10;99.90
11047;DHT22;5576;50.008;10.596;2022-07-03T02:31:40;17.10;99.90
11047;DHT22;5576;50.008;10.596;2022-07-03T02:34:08;17.10;99.90
11047;DHT22;5576;50.008;10.596;2022-07-03T02:39:16;17.00;99.90
11047;DHT22;5576;50.008;10.596;2022-07-03T02:41:53;17.00;99.90
11047;DHT22;5576;50.008;10.596;2022-07-03T02:44:31;16.90;99.90
11047;DHT22;5576;50.008;10.596;2022-07-03T02:50:06;16.80;99.90
11047;DHT22;5576;50.008;10.596;2022-07-03T02:52:45;16.60;99.90
11047;DHT22;5576;50.008;10.596;2022-07-03T02:58:09;16.50;99.90
11047;DHT22;5576;50.008;10.596;2022-07-03T03:00:43;16.60;99.90
11047;DHT22;5576;50.008;10.596;2022-07-03T03:03:16;16.60;99.90
11047;DHT22;5576;50.008;10.596;2022-07-03T03:05:47;16.50;99.90
11047;DHT22;5576;50.008;10.596;2022-07-03T03:08:32;16.50;99.90
11047;DHT22;5576;50.008;10.596;2022-07-03T03:11:06;16.50;99.90
11047;DHT22;5576;50.008;10.596;2022-07-03T03:13:34;16.50;99.90
11047;DHT22;5576;50.008;10.596;2022-07-03T03:16:05;16.40;99.90
11047;DHT22;5576;50.008;10.596;2022-07-03T03:18:35;16.40;99.90
11047;DHT22;5576;50.008;10.596;2022-07-03T03:21:03;16.40;99.90
11047;DHT22;5576;50.008;10.596;2022-07-03T03:26:01;15.20;99.90
11047;DHT22;5576;50.008;10.596;2022-07-03T03:28:27;19.20;99.90
11047;DHT22;5576;50.008;10.596;2022-07-03T03:30:53;16.50;99.90
11047;DHT22;5576;50.008;10.596;2022-07-03T03:35:45;16.40;99.90
11047;DHT22;5576;50.008;10.596;2022-07-03T03:38:12;16.50;99.90
11047;DHT22;5576;50.008;10.596;2022-07-03T03:40:37;16.50;99.90
11047;DHT22;5576;50.008;10.596;2022-07-03T03:43:03;16.40;99.90
11047;DHT22;5576;50.008;10.596;2022-07-03T03:45:29;16.40;99.90
11047;DHT22;5576;50.008;10.596;2022-07-03T03:47:56;16.30;99.90
11047;DHT22;5576;50.008;10.596;2022-07-03T03:50:22;16.20;99.90
11047;DHT22;5576;50.008;10.596;2022-07-03T03:52:48;16.30;99.90
11047;DHT22;5576;50.008;10.596;2022-07-03T03:55:14;16.20;99.90
11047;DHT22;5576;50.008;10.596;2022-07-03T03:57:40;16.10;99.90
11047;DHT22;5576;50.008;10.596;2022-07-03T04:00:06;16.10;99.90
11047;DHT22;5576;50.008;10.596;2022-07-03T04:02:39;16.10;99.90
11047;DHT22;5576;50.008;10.596;2022-07-03T04:07:31;16.20;99.90
11047;DHT22;5576;50.008;10.596;2022-07-03T04:09:57;16.30;99.90
11047;DHT22;5576;50.008;10.596;2022-07-03T04:12:22;16.40;99.90
11047;DHT22;5576;50.008;10.596;2022-07-03T04:14:48;18.50;99.90
11047;DHT22;5576;50.008;10.596;2022-07-03T04:17:14;16.50;99.90
11047;DHT22;5576;50.008;10.596;2022-07-03T04:19:40;16.50;99.90
11047;DHT22;5576;50.008;10.596;2022-07-03T04:22:06;14.70;99.90
11047;DHT22;5576;50.008;10.596;2022-07-03T04:24:35;16.60;99.90
11047;DHT22;5576;50.008;10.596;2022-07-03T04:27:01;16.70;99.90
11047;DHT22;5576;50.008;10.596;2022-07-03T04:29:26;16.70;99.90
11047;DHT22;5576;50.008;10.596;2022-07-03T04:31:52;17.30;99.90
11047;DHT22;5576;50.008;10.596;2022-07-03T04:34:18;16.90;99.90
11047;DHT22;5576;50.008;10.596;2022-07-03T04:36:43;16.90;99.90
11047;DHT22;5576;50.008;10.596;2022-07-03T04:39:09;16.90;99.90
11047;DHT22;5576;50.008;10.596;2022-07-03T04:41:35;17.00;99.90
11047;DHT22;5576;50.008;10.596;2022-07-03T04:44:00;17.00;99.90
11047;DHT22;5576;50.008;10.596;2022-07-03T04:46:26;17.00;99.90
11047;DHT22;5576;50.008;10.596;2022-07-03T04:48:52;17.00;99.90
11047;DHT22;5576;50.008;10.596;2022-07-03T04:51:17;17.00;99.90
11047;DHT22;5576;50.008;10.596;2022-07-03T04:53:43;17.00;99.90
11047;DHT22;5576;50.008;10.596;2022-07-03T04:56:09;17.00;99.90
11047;DHT22;5576;50.008;10.596;2022-07-03T04:58:34;17.10;99.90
11047;DHT22;5576;50.008;10.596;2022-07-03T05:01:00;17.10;99.90
11047;DHT22;5576;50.008;10.596;2022-07-03T05:03:26;17.10;99.90
11047;DHT22;5576;50.008;10.596;2022-07-03T05:05:52;17.20;99.90
11047;DHT22;5576;50.008;10.596;2022-07-03T05:08:18;17.20;99.90
11047;DHT22;5576;50.008;10.596;2022-07-03T05:10:46;17.30;99.90
11047;DHT22;5576;50.008;10.596;2022-07-03T05:13:11;17.20;99.90
11047;DHT22;5576;50.008;10.596;2022-07-03T05:15:37;17.30;99.90
11047;DHT22;5576;50.008;10.596;2022-07-03T05:18:03;18.90;99.90
11047;DHT22;5576;50.008;10.596;2022-07-03T05:20:29;17.30;99.90
11047;DHT22;5576;50.008;10.596;2022-07-03T05:22:58;17.40;99.90
11047;DHT22;5576;50.008;10.596;2022-07-03T05:25:24;17.40;99.90
11047;DHT22;5576;50.008;10.596;2022-07-03T05:27:50;17.40;99.90
11047;DHT22;5576;50.008;10.596;2022-07-03T05:30:16;17.40;99.90
11047;DHT22;5576;50.008;10.596;2022-07-03T05:32:42;17.40;99.90
11047;DHT22;5576;50.008;10.596;2022-07-03T05:35:08;17.50;99.90
11047;DHT22;5576;50.008;10.596;2022-07-03T05:37:34;17.50;99.90
11047;DHT22;5576;50.008;10.596;2022-07-03T05:40:00;17.60;99.90
11047;DHT22;5576;50.008;10.596;2022-07-03T05:42:26;17.70;99.90
11047;DHT22;5576;50.008;10.596;2022-07-03T05:44:51;17.70;99.90
11047;DHT22;5576;50.008;10.596;2022-07-03T05:47:17;17.80;99.90
11047;DHT22;5576;50.008;10.596;2022-07-03T05:49:43;17.90;99.90
11047;DHT22;5576;50.008;10.596;2022-07-03T05:52:08;17.90;99.90
11047;DHT22;5576;50.008;10.596;2022-07-03T05:54:34;17.90;99.90
11047;DHT22;5576;50.008;10.596;2022-07-03T05:57:00;18.00;99.90
11047;DHT22;5576;50.008;10.596;2022-07-03T05:59:26;18.10;99.90
11047;DHT22;5576;50.008;10.596;2022-07-03T06:01:51;18.20;99.90
11047;DHT22;5576;50.008;10.596;2022-07-03T06:04:17;18.30;99.90
11047;DHT22;5576;50.008;10.596;2022-07-03T06:06:43;18.30;99.90
11047;DHT22;5576;50.008;10.596;2022-07-03T06:09:08;18.30;99.90
11047;DHT22;5576;50.008;10.596;2022-07-03T06:11:34;18.40;99.90
11047;DHT22;5576;50.008;10.596;2022-07-03T06:14:00;18.40;99.90
11047;DHT22;5576;50.008;10.596;2022-07-03T06:16:25;18.50;99.90
11047;DHT22;5576;50.008;10.596;2022-07-03T06:18:51;20.60;99.90
11047;DHT22;5576;50.008;10.596;2022-07-03T06:21:17;18.60;99.90
11047;DHT22;5576;50.008;10.596;2022-07-03T06:23:42;18.80;99.90
11047;DHT22;5576;50.008;10.596;2022-07-03T06:26:08;18.80;99.90
11047;DHT22;5576;50.008;10.596;2022-07-03T06:28:34;18.80;99.90
11047;DHT22;5576;50.008;10.596;2022-07-03T06:31:00;18.90;99.90
11047;DHT22;5576;50.008;10.596;2022-07-03T06:33:25;19.00;99.90
11047;DHT22;5576;50.008;10.596;2022-07-03T06:35:51;19.10;99.90
11047;DHT22;5576;50.008;10.596;2022-07-03T06:38:17;19.20;99.90
11047;DHT22;5576;50.008;10.596;2022-07-03T06:40:42;19.20;99.90
11047;DHT22;5576;50.008;10.596;2022-07-03T06:43:08;19.30;99.90
11047;DHT22;5576;50.008;10.596;2022-07-03T06:45:34;19.30;99.90
11047;DHT22;5576;50.008;10.596;2022-07-03T06:47:59;19.40;99.90
11047;DHT22;5576;50.008;10.596;2022-07-03T06:50:25;19.50;99.90
11047;DHT22;5576;50.008;10.596;2022-07-03T06:52:51;18.80;99.90
11047;DHT22;5576;50.008;10.596;2022-07-03T06:55:16;20.20;99.90
11047;DHT22;5576;50.008;10.596;2022-07-03T06:57:42;19.70;99.90
11047;DHT22;5576;50.008;10.596;2022-07-03T07:00:08;19.80;99.90
11047;DHT22;5576;50.008;10.596;2022-07-03T07:02:34;19.80;99.90
11047;DHT22;5576;50.008;10.596;2022-07-03T07:05:00;19.90;99.90
11047;DHT22;5576;50.008;10.596;2022-07-03T07:07:26;20.30;99.90
11047;DHT22;5576;50.008;10.596;2022-07-03T07:09:51;19.90;99.90
11047;DHT22;5576;50.008;10.596;2022-07-03T07:12:17;19.90;99.90
11047;DHT22;5576;50.008;10.596;2022-07-03T07:14:43;19.90;99.90
11047;DHT22;5576;50.008;10.596;2022-07-03T07:17:09;20.00;99.90
11047;DHT22;5576;50.008;10.596;2022-07-03T07:19:35;20.10;99.90
11047;DHT22;5576;50.008;10.596;2022-07-03T07:22:00;20.10;99.90
11047;DHT22;5576;50.008;10.596;2022-07-03T07:24:27;20.20;99.90
11047;DHT22;5576;50.008;10.596;2022-07-03T07:26:53;20.10;99.90
11047;DHT22;5576;50.008;10.596;2022-07-03T07:29:19;20.20;99.90
11047;DHT22;5576;50.008;10.596;2022-07-03T07:31:45;20.20;99.90
11047;DHT22;5576;50.008;10.596;2022-07-03T07:36:45;21.40;99.90
11047;DHT22;5576;50.008;10.596;2022-07-03T07:39:11;20.30;99.90
11047;DHT22;5576;50.008;10.596;2022-07-03T07:41:37;20.40;99.90
11047;DHT22;5576;50.008;10.596;2022-07-03T07:44:04;20.40;99.90
11047;DHT22;5576;50.008;10.596;2022-07-03T07:46:30;20.50;99.90
11047;DHT22;5576;50.008;10.596;2022-07-03T07:48:56;20.50;99.90
11047;DHT22;5576;50.008;10.596;2022-07-03T07:51:22;20.70;99.90
11047;DHT22;5576;50.008;10.596;2022-07-03T07:53:48;23.60;99.90
11047;DHT22;5576;50.008;10.596;2022-07-03T07:56:16;20.70;99.90
11047;DHT22;5576;50.008;10.596;2022-07-03T07:58:41;20.90;99.90
11047;DHT22;5576;50.008;10.596;2022-07-03T08:01:07;21.00;99.90
11047;DHT22;5576;50.008;10.596;2022-07-03T08:03:53;21.10;99.90
11047;DHT22;5576;50.008;10.596;2022-07-03T08:06:39;21.40;99.90
11047;DHT22;5576;50.008;10.596;2022-07-03T08:09:04;21.40;99.90
11047;DHT22;5576;50.008;10.596;2022-07-03T08:11:30;21.60;99.90
11047;DHT22;5576;50.008;10.596;2022-07-03T08:13:56;21.60;99.90
11047;DHT22;5576;50.008;10.596;2022-07-03T08:16:21;21.70;99.90
11047;DHT22;5576;50.008;10.596;2022-07-03T08:18:47;21.80;99.90
11047;DHT22;5576;50.008;10.596;2022-07-03T08:21:13;21.90;99.90
11047;DHT22;5576;50.008;10.596;2022-07-03T08:23:38;22.10;99.90
11047;DHT22;5576;50.008;10.596;2022-07-03T08:26:05;22.20;99.90
11047;DHT22;5576;50.008;10.596;2022-07-03T08:28:31;22.20;99.90
11047;DHT22;5576;50.008;10.596;2022-07-03T08:30:56;22.40;99.90
11047;DHT22;5576;50.008;10.596;2022-07-03T08:33:22;22.50;99.90
11047;DHT22;5576;50.008;10.596;2022-07-03T08:35:48;24.90;99.90
11047;DHT22;5576;50.008;10.596;2022-07-03T08:38:14;22.50;99.90
11047;DHT22;5576;50.008;10.596;2022-07-03T08:40:40;22.80;99.90
11047;DHT22;5576;50.008;10.596;2022-07-03T08:43:07;22.90;99.90
11047;DHT22;5576;50.008;10.596;2022-07-03T08:45:33;26.10;99.90
11047;DHT22;5576;50.008;10.596;2022-07-03T08:48:04;23.10;99.90
11047;DHT22;5576;50.008;10.596;2022-07-03T08:50:33;23.10;99.90
11047;DHT22;5576;50.008;10.596;2022-07-03T08:52:59;23.20;99.90
11047;DHT22;5576;50.008;10.596;2022-07-03T08:55:25;23.30;99.90
11047;DHT22;5576;50.008;10.596;2022-07-03T08:57:54;23.50;99.90
11047;DHT22;5576;50.008;10.596;2022-07-03T09:00:21;19.90;99.90
11047;DHT22;5576;50.008;10.596;2022-07-03T09:02:48;23.70;99.90
11047;DHT22;5576;50.008;10.596;2022-07-03T09:05:16;23.80;99.90
11047;DHT22;5576;50.008;10.596;2022-07-03T09:07:44;23.80;99.90
11047;DHT22;5576;50.008;10.596;2022-07-03T09:10:12;23.90;99.90
11047;DHT22;5576;50.008;10.596;2022-07-03T09:12:39;21.30;99.90
11047;DHT22;5576;50.008;10.596;2022-07-03T09:15:07;24.30;99.90
11047;DHT22;5576;50.008;10.596;2022-07-03T09:17:33;24.40;99.90
11047;DHT22;5576;50.008;10.596;2022-07-03T09:20:01;24.40;99.90
11047;DHT22;5576;50.008;10.596;2022-07-03T09:22:31;24.60;99.90
11047;DHT22;5576;50.008;10.596;2022-07-03T09:25:07;24.80;99.90
11047;DHT22;5576;50.008;10.596;2022-07-03T09:27:35;24.80;99.90
11047;DHT22;5576;50.008;10.596;2022-07-03T09:30:03;24.80;99.90
11047;DHT22;5576;50.008;10.596;2022-07-03T09:32:32;24.90;99.90
11047;DHT22;5576;50.008;10.596;2022-07-03T09:35:20;24.90;99.90
11047;DHT22;5576;50.008;10.596;2022-07-03T09:38:04;25.00;99.90
11047;DHT22;5576;50.008;10.596;2022-07-03T09:40:50;25.10;99.90
11047;DHT22;5576;50.008;10.596;2022-07-03T09:43:23;25.10;99.90
11047;DHT22;5576;50.008;10.596;2022-07-03T09:45:59;25.20;99.90
11047;DHT22;5576;50.008;10.596;2022-07-03T09:48:31;25.40;99.90
11047;DHT22;5576;50.008;10.596;2022-07-03T09:53:52;25.70;99.90
11047;DHT22;5576;50.008;10.596;2022-07-03T09:56:19;25.80;99.90
11047;DHT22;5576;50.008;10.596;2022-07-03T09:59:09;25.90;99.90
11047;DHT22;5576;50.008;10.596;2022-07-03T10:01:37;26.10;99.90
11047;DHT22;5576;50.008;10.596;2022-07-03T10:04:21;26.20;99.90
11047;DHT22;5576;50.008;10.596;2022-07-03T10:06:55;26.20;99.90
11047;DHT22;5576;50.008;10.596;2022-07-03T10:09:24;26.20;99.90
11047;DHT22;5576;50.008;10.596;2022-07-03T10:11:50;28.80;99.90
11047;DHT22;5576;50.008;10.596;2022-07-03T10:14:19;26.30;99.90
11047;DHT22;5576;50.008;10.596;2022-07-03T10:16:45;26.60;99.90
11047;DHT22;5576;50.008;10.596;2022-07-03T10:19:14;26.60;99.90
11047;DHT22;5576;50.008;10.596;2022-07-03T10:21:42;26.80;99.90
11047;DHT22;5576;50.008;10.596;2022-07-03T10:24:08;26.30;99.90
11047;DHT22;5576;50.008;10.596;2022-07-03T10:26:36;27.10;99.90
11047;DHT22;5576;50.008;10.596;2022-07-03T10:29:02;27.10;99.90
11047;DHT22;5576;50.008;10.596;2022-07-03T10:31:28;27.20;99.90
11047;DHT22;5576;50.008;10.596;2022-07-03T10:33:54;27.20;99.90
11047;DHT22;5576;50.008;10.596;2022-07-03T10:36:22;27.30;99.90
11047;DHT22;5576;50.008;10.596;2022-07-03T10:38:48;27.40;99.90
11047;DHT22;5576;50.008;10.596;2022-07-03T10:41:25;25.30;99.90
11047;DHT22;5576;50.008;10.596;2022-07-03T10:44:14;27.40;99.90
11047;DHT22;5576;50.008;10.596;2022-07-03T10:47:00;27.50;99.90
11047;DHT22;5576;50.008;10.596;2022-07-03T10:49:26;27.50;99.90
11047;DHT22;5576;50.008;10.596;2022-07-03T10:52:01;27.70;99.90
11047;DHT22;5576;50.008;10.596;2022-07-03T10:54:32;27.80;99.90
11047;DHT22;5576;50.008;10.596;2022-07-03T11:02:25;28.00;99.90
11047;DHT22;5576;50.008;10.596;2022-07-03T11:13:04;28.20;99.90
11047;DHT22;5576;50.008;10.596;2022-07-03T11:15:51;28.20;99.90
11047;DHT22;5576;50.008;10.596;2022-07-03T11:18:20;28.30;99.90
11047;DHT22;5576;50.008;10.596;2022-07-03T11:26:01;28.60;99.90
11047;DHT22;5576;50.008;10.596;2022-07-03T11:36:11;28.70;99.40
11047;DHT22;5576;50.008;10.596;2022-07-03T11:38:37;28.70;99.00
11047;DHT22;5576;50.008;10.596;2022-07-03T11:41:07;28.80;98.70
11047;DHT22;5576;50.008;10.596;2022-07-03T11:43:33;29.00;99.20
11047;DHT22;5576;50.008;10.596;2022-07-03T11:46:01;29.10;98.50
11047;DHT22;5576;50.008;10.596;2022-07-03T11:48:28;29.20;98.20
11047;DHT22;5576;50.008;10.596;2022-07-03T11:51:01;29.50;97.40
11047;DHT22;5576;50.008;10.596;2022-07-03T11:53:32;30.50;96.60
11047;DHT22;5576;50.008;10.596;2022-07-03T11:56:07;29.60;96.60
11047;DHT22;5576;50.008;10.596;2022-07-03T11:58:52;29.50;96.20
11047;DHT22;5576;50.008;10.596;2022-07-03T12:03:52;29.50;97.80
11047;DHT22;5576;50.008;10.596;2022-07-03T12:06:20;29.70;96.80
11047;DHT22;5576;50.008;10.596;2022-07-03T12:08:46;30.50;96.60
11047;DHT22;5576;50.008;10.596;2022-07-03T12:11:15;29.70;97.00
11047;DHT22;5576;50.008;10.596;2022-07-03T12:13:42;29.70;95.60
11047;DHT22;5576;50.008;10.596;2022-07-03T12:16:11;29.80;96.80
11047;DHT22;5576;50.008;10.596;2022-07-03T12:18:54;29.90;97.70
11047;DHT22;5576;50.008;10.596;2022-07-03T12:21:22;31.00;96.30
11047;DHT22;5576;50.008;10.596;2022-07-03T12:23:52;30.00;96.30
11047;DHT22;5576;50.008;10.596;2022-07-03T12:26:34;29.80;96.30
11047;DHT22;5576;50.008;10.596;2022-07-03T12:29:02;29.80;97.20
11047;DHT22;5576;50.008;10.596;2022-07-03T12:31:29;30.10;96.90
11047;DHT22;5576;50.008;10.596;2022-07-03T12:33:56;30.20;96.60
11047;DHT22;5576;50.008;10.596;2022-07-03T12:36:22;30.30;97.70
11047;DHT22;5576;50.008;10.596;2022-07-03T12:38:49;30.50;97.00
11047;DHT22;5576;50.008;10.596;2022-07-03T12:41:16;30.60;96.20
11047;DHT22;5576;50.008;10.596;2022-07-03T12:43:45;30.60;95.60
11047;DHT22;5576;50.008;10.596;2022-07-03T12:48:47;30.80;96.20
11047;DHT22;5576;50.008;10.596;2022-07-03T12:51:14;30.80;96.20
11047;DHT22;5576;50.008;10.596;2022-07-03T12:53:40;30.90;95.80
11047;DHT22;5576;50.008;10.596;2022-07-03T12:56:08;31.00;95.10
11047;DHT22;5576;50.008;10.596;2022-07-03T12:58:34;30.90;95.90
11047;DHT22;5576;50.008;10.596;2022-07-03T13:01:26;31.20;95.20
11047;DHT22;5576;50.008;10.596;2022-07-03T13:03:52;31.20;95.50
11047;DHT22;5576;50.008;10.596;2022-07-03T13:06:20;31.20;94.40
11047;DHT22;5576;50.008;10.596;2022-07-03T13:08:55;31.20;94.50
11047;DHT22;5576;50.008;10.596;2022-07-03T13:11:26;30.90;94.10
11047;DHT22;5576;50.008;10.596;2022-07-03T13:13:52;31.30;94.20
11047;DHT22;5576;50.008;10.596;2022-07-03T13:16:41;31.30;93.50
11047;DHT22;5576;50.008;10.596;2022-07-03T13:19:08;30.50;94.00
11047;DHT22;5576;50.008;10.596;2022-07-03T13:21:34;31.50;93.40
11047;DHT22;5576;50.008;10.596;2022-07-03T13:24:01;31.50;93.60
11047;DHT22;5576;50.008;10.596;2022-07-03T13:26:26;31.60;92.80
11047;DHT22;5576;50.008;10.596;2022-07-03T13:28:53;31.70;93.70
11047;DHT22;5576;50.008;10.596;2022-07-03T13:31:18;31.90;93.60
11047;DHT22;5576;50.008;10.596;2022-07-03T13:33:44;31.90;93.50
11047;DHT22;5576;50.008;10.596;2022-07-03T13:36:10;33.00;93.10
11047;DHT22;5576;50.008;10.596;2022-07-03T13:38:36;32.00;92.60
11047;DHT22;5576;50.008;10.596;2022-07-03T13:41:01;31.90;92.50
11047;DHT22;5576;50.008;10.596;2022-07-03T13:43:27;31.50;92.00
11047;DHT22;5576;50.008;10.596;2022-07-03T13:45:53;31.20;93.00
11047;DHT22;5576;50.008;10.596;2022-07-03T13:48:19;31.30;93.00
11047;DHT22;5576;50.008;10.596;2022-07-03T13:50:45;31.40;93.40
11047;DHT22;5576;50.008;10.596;2022-07-03T13:53:12;31.50;91.40
11047;DHT22;5576;50.008;10.596;2022-07-03T13:55:38;31.60;92.20
11047;DHT22;5576;50.008;10.596;2022-07-03T13:58:06;31.50;91.70
11047;DHT22;5576;50.008;10.596;2022-07-03T14:00:33;31.70;92.00
11047;DHT22;5576;50.008;10.596;2022-07-03T14:03:00;31.80;90.40
11047;DHT22;5576;50.008;10.596;2022-07-03T14:05:25;31.80;91.50
11047;DHT22;5576;50.008;10.596;2022-07-03T14:07:51;31.90;90.80
11047;DHT22;5576;50.008;10.596;2022-07-03T14:10:17;29.30;89.40
11047;DHT22;5576;50.008;10.596;2022-07-03T14:12:43;28.80;87.20
11047;DHT22;5576;50.008;10.596;2022-07-03T14:15:09;32.00;90.70
11047;DHT22;5576;50.008;10.596;2022-07-03T14:17:35;31.90;90.80
11047;DHT22;5576;50.008;10.596;2022-07-03T14:20:00;31.60;90.30
11047;DHT22;5576;50.008;10.596;2022-07-03T14:22:26;31.10;90.90
11047;DHT22;5576;50.008;10.596;2022-07-03T14:24:52;31.00;90.30
11047;DHT22;5576;50.008;10.596;2022-07-03T14:27:18;31.00;89.70
11047;DHT22;5576;50.008;10.596;2022-07-03T14:30:05;31.90;90.80
11047;DHT22;5576;50.008;10.596;2022-07-03T14:32:50;31.40;90.10
11047;DHT22;5576;50.008;10.596;2022-07-03T14:37:42;31.60;88.20
11047;DHT22;5576;50.008;10.596;2022-07-03T14:40:08;31.70;89.10
11047;DHT22;5576;50.008;10.596;2022-07-03T14:42:34;34.70;90.50
11047;DHT22;5576;50.008;10.596;2022-07-03T14:45:00;31.90;87.10
11047;DHT22;5576;50.008;10.596;2022-07-03T14:47:26;31.90;85.90
11047;DHT22;5576;50.008;10.596;2022-07-03T14:49:52;31.40;86.00
11047;DHT22;5576;50.008;10.596;2022-07-03T14:52:17;32.10;85.50
11047;DHT22;5576;50.008;10.596;2022-07-03T14:54:43;32.10;86.20
11047;DHT22;5576;50.008;10.596;2022-07-03T15:00:06;32.10;87.90
11047;DHT22;5576;50.008;10.596;2022-07-03T15:02:42;32.30;86.50
11047;DHT22;5576;50.008;10.596;2022-07-03T15:05:11;32.30;86.10
11047;DHT22;5576;50.008;10.596;2022-07-03T15:10:08;31.00;83.50
11047;DHT22;5576;50.008;10.596;2022-07-03T15:12:42;32.30;84.00
11047;DHT22;5576;50.008;10.596;2022-07-03T15:15:09;32.30;83.80
11047;DHT22;5576;50.008;10.596;2022-07-03T15:17:36;32.30;84.10
11047;DHT22;5576;50.008;10.596;2022-07-03T15:20:03;33.40;87.30
11047;DHT22;5576;50.008;10.596;2022-07-03T15:22:30;32.50;82.90
11047;DHT22;5576;50.008;10.596;2022-07-03T15:24:58;30.30;83.50
11047;DHT22;5576;50.008;10.596;2022-07-03T15:27:25;32.50;86.10
11047;DHT22;5576;50.008;10.596;2022-07-03T15:29:52;33.10;86.90
11047;DHT22;5576;50.008;10.596;2022-07-03T15:32:18;32.60;86.20
11047;DHT22;5576;50.008;10.596;2022-07-03T15:34:44;32.50;85.60
11047;DHT22;5576;50.008;10.596;2022-07-03T15:39:49;31.90;84.50
11047;DHT22;5576;50.008;10.596;2022-07-03T15:42:44;31.80;85.80
11047;DHT22;5576;50.008;10.596;2022-07-03T15:45:20;30.80;83.80
11047;DHT22;5576;50.008;10.596;2022-07-03T15:47:59;31.90;85.60
11047;DHT22;5576;50.008;10.596;2022-07-03T15:53:11;32.20;85.90
11047;DHT22;5576;50.008;10.596;2022-07-03T15:55:42;32.40;85.10
11047;DHT22;5576;50.008;10.596;2022-07-03T15:58:11;31.00;84.70
11047;DHT22;5576;50.008;10.596;2022-07-03T16:00:40;32.50;84.60
11047;DHT22;5576;50.008;10.596;2022-07-03T16:03:26;32.60;85.70
11047;DHT22;5576;50.008;10.596;2022-07-03T16:05:55;31.00;84.30
11047;DHT22;5576;50.008;10.596;2022-07-03T16:08:23;31.20;84.20
11047;DHT22;5576;50.008;10.596;2022-07-03T16:10:50;32.70;85.50
11047;DHT22;5576;50.008;10.596;2022-07-03T16:13:20;32.50;83.80
11047;DHT22;5576;50.008;10.596;2022-07-03T16:15:50;32.60;84.50
11047;DHT22;5576;50.008;10.596;2022-07-03T16:18:16;33.30;84.20
11047;DHT22;5576;50.008;10.596;2022-07-03T16:20:42;32.60;85.20
11047;DHT22;5576;50.008;10.596;2022-07-03T16:23:11;32.60;82.60
11047;DHT22;5576;50.008;10.596;2022-07-03T16:25:38;32.40;83.30
11047;DHT22;5576;50.008;10.596;2022-07-03T16:28:07;32.40;84.10
11047;DHT22;5576;50.008;10.596;2022-07-03T16:30:36;32.50;85.00
11047;DHT22;5576;50.008;10.596;2022-07-03T16:33:08;32.60;83.80
11047;DHT22;5576;50.008;10.596;2022-07-03T16:35:40;30.80;80.30
11047;DHT22;5576;50.008;10.596;2022-07-03T16:38:08;32.60;83.00
11047;DHT22;5576;50.008;10.596;2022-07-03T16:40:34;32.60;82.10
11047;DHT22;5576;50.008;10.596;2022-07-03T16:43:03;32.50;81.30
11047;DHT22;5576;50.008;10.596;2022-07-03T16:45:32;32.40;82.80
11047;DHT22;5576;50.008;10.596;2022-07-03T16:48:08;32.90;83.40
11047;DHT22;5576;50.008;10.596;2022-07-03T16:50:34;32.30;83.00
11047;DHT22;5576;50.008;10.596;2022-07-03T16:53:00;32.30;81.80
11047;DHT22;5576;50.008;10.596;2022-07-03T16:55:26;32.10;82.10
11047;DHT22;5576;50.008;10.596;2022-07-03T16:57:54;32.10;82.90
11047;DHT22;5576;50.008;10.596;2022-07-03T17:00:22;32.10;83.10